• Join FlightAware (Why Join?)
  • Login
  • US Flag GB Flag 
01:22 EDT


 

Airport Tracker/Info


-or-


 

Live Flight TrackerFlight Track Log ✈ AVN10 ✈ 23-Sep-2013 ✈ NVVV / VLI - YSSY / SYD

Flight Track Log - Related Links

Times and Time Zones

All times are in EDT time to prevent confusion due to time zone crossing. See the AVN10 flight status page for this flight to view local times or setup timezone preferences in your user account.

Time Position Orientation Groundspeed Altitude Reporting Facility
EDT Latitude Longitude Course Direction KTS MPH feet Rate Location/Type
16:09 -18.1153 168.1077 206° Southwest  Level FlightAware Approximate
16:10 -18.2193 168.0545 206° Southwest  Level FlightAware Approximate
16:11 -18.3232 168.0013 206° Southwest  Level FlightAware Approximate
16:12 -18.4110 167.9221 204° Southwest  Level Estimated
16:13 -18.5168 167.8729 204° Southwest  Level FlightAware Approximate
16:14 -18.6225 167.8237 204° Southwest  Level FlightAware Approximate
16:15 -18.7283 167.7745 204° Southwest  Level FlightAware Approximate
16:16 -18.8340 167.7251 204° Southwest  Level FlightAware Approximate
16:17 -18.9397 167.6758 204° Southwest  Level FlightAware Approximate
16:18 -19.0454 167.6263 204° Southwest  Level FlightAware Approximate
16:19 -19.1511 167.5768 204° Southwest  Level FlightAware Approximate
16:20 -19.2568 167.5272 204° Southwest  Level FlightAware Approximate
16:21 -19.3625 167.4776 204° Southwest  Level FlightAware Approximate
16:22 -19.4681 167.4279 204° Southwest  Level FlightAware Approximate
16:23 -19.5738 167.3781 204° Southwest  Level FlightAware Approximate
16:24 -19.6794 167.3283 204° Southwest  Level FlightAware Approximate
16:25 -19.7850 167.2784 204° Southwest  Level FlightAware Approximate
16:26 -19.8906 167.2284 204° Southwest  Level FlightAware Approximate
16:27 -19.9962 167.1784 204° Southwest  Level FlightAware Approximate
16:28 -20.1018 167.1283 204° Southwest  Level FlightAware Approximate
16:29 -20.2073 167.0781 204° Southwest  Level FlightAware Approximate
16:30 -20.3129 167.0279 204° Southwest  Level FlightAware Approximate
16:30 -20.3550 166.9950 204° Southwest 484 557 38,000  Level FlightAware
16:31 -20.4184 166.9776 204° Southwest  Level FlightAware Approximate
16:31 -20.4290 166.9600 204° Southwest 484 557 38,000  Level FlightAware
16:32 -20.4980 166.9280 203° Southwest 484 557 38,000  Level FlightAware
16:32 -20.5700 166.8940 204° Southwest 484 557 38,000  Level FlightAware
16:33 -20.6420 166.8600 204° Southwest 485 558 38,000  Level FlightAware
16:33 -20.7120 166.8270 204° Southwest 486 559 38,000  Level FlightAware
16:34 -20.7870 166.7910 204° Southwest 489 563 38,000  Level FlightAware
16:34 -20.8620 166.7560 204° Southwest 492 566 38,000  Level FlightAware
16:35 -20.9380 166.7200 204° Southwest 495 570 38,000  Level FlightAware
16:36 -21.0040 166.6890 204° Southwest 498 573 38,000  Level FlightAware
16:36 -21.0810 166.6530 204° Southwest 502 578 38,000  Level FlightAware
16:37 -21.1600 166.6160 204° Southwest 506 582 38,000  Level FlightAware
16:37 -21.2280 166.5830 204° Southwest 508 585 38,000  Level FlightAware
16:38 -21.3050 166.5470 204° Southwest 508 585 38,000  Level FlightAware
16:39 -21.3830 166.5090 204° Southwest 506 582 38,000  Level FlightAware
16:39 -21.4520 166.4760 204° Southwest 507 583 38,000  Level FlightAware
16:40 -21.5330 166.4380 204° Southwest 506 582 38,000  Level FlightAware
16:40 -21.6080 166.4020 204° Southwest 500 575 38,000  Level FlightAware
16:41 -21.6840 166.3660 204° Southwest 489 563 38,000  Level FlightAware
16:41 -21.7560 166.3310 204° Southwest 490 564 38,000  Level FlightAware
16:42 -21.8210 166.3000 204° Southwest 488 562 38,000  Level FlightAware
16:43 -21.9000 166.2620 204° Southwest 488 562 38,000  Level FlightAware
16:43 -21.9720 166.2260 205° Southwest 483 556 38,000  Level FlightAware
16:44 -22.0320 166.1830 214° Southwest 465 535 38,000  Level FlightAware
16:44 -22.0860 166.1270 224° Southwest 456 525 38,000  Level FlightAware
16:45 -22.1410 166.0700 224° Southwest 456 525 38,000  Level FlightAware
16:46 -22.1890 166.0190 225° Southwest 456 525 38,000  Level FlightAware
16:46 -22.2440 165.9620 224° Southwest 455 524 38,000  Level FlightAware
16:47 -22.2950 165.9090 224° Southwest 455 524 38,000  Level FlightAware
16:47 -22.3540 165.8470 224° Southwest 454 522 38,000  Level FlightAware
16:48 -22.4050 165.7930 224° Southwest 458 527 38,000  Level FlightAware
16:48 -22.4590 165.7360 224° Southwest 465 535 38,000  Level FlightAware
16:49 -22.5130 165.6790 224° Southwest 470 541 38,000  Level FlightAware
16:50 -22.5680 165.6200 225° Southwest 473 544 38,000  Level FlightAware
16:50 -22.6190 165.5670 224° Southwest 474 545 38,000  Level FlightAware
16:51 -22.6780 165.5040 225° Southwest 475 547 38,000  Level FlightAware
16:51 -22.7220 165.4580 224° Southwest 467 537 38,000  Level FlightAware
16:52 -22.7760 165.4000 225° Southwest 456 525 38,000  Level FlightAware
16:52 -22.8310 165.3410 225° Southwest 458 527 38,000  Level FlightAware
16:53 -22.8820 165.2880 224° Southwest 458 527 38,000  Level FlightAware
16:54 -22.9330 165.2330 225° Southwest 458 527 38,000  Level FlightAware
16:54 -22.9850 165.1780 224° Southwest 460 529 38,000  Level FlightAware
16:55 -23.0430 165.1160 225° Southwest 463 533 38,000  Level FlightAware
16:55 -23.0950 165.0600 225° Southwest 471 542 38,000  Level FlightAware
16:56 -23.1490 165.0020 225° Southwest 480 552 38,000  Level FlightAware
16:57 -23.2090 164.9380 224° Southwest 485 558 38,000  Level FlightAware
16:57 -23.2610 164.8840 224° Southwest 485 558 38,000  Level FlightAware
16:58 -23.3110 164.8320 224° Southwest 485 558 38,000  Level FlightAware
16:58 -23.3600 164.7800 224° Southwest 485 558 38,000  Level FlightAware
16:59 -23.4090 164.7280 224° Southwest 485 558 38,000  Level FlightAware
17:00 -23.4610 164.6730 224° Southwest 485 558 38,000  Level FlightAware
17:00 -23.5110 164.6210 224° Southwest 485 558 38,000  Level FlightAware
17:01 -23.5600 164.5690 224° Southwest 485 558 38,000  Level FlightAware
17:01 -23.6100 164.5170 224° Southwest 485 558 38,000  Level FlightAware
17:02 -23.6560 164.4680 224° Southwest 485 558 38,000  Level FlightAware
17:03 -23.7070 164.4140 224° Southwest 485 558 38,000  Level FlightAware
17:03 -23.7580 164.3610 224° Southwest 485 558 38,000  Level FlightAware
17:04 -23.8070 164.3080 225° Southwest 485 558 38,000  Level FlightAware
17:04 -23.8590 164.2530 224° Southwest 485 558 38,000  Level FlightAware
17:05 -23.9100 164.2000 224° Southwest 485 558 38,000  Level FlightAware
17:06 -23.9570 164.1510 224° Southwest 485 558 38,000  Level FlightAware
17:06 -24.0060 164.0980 225° Southwest 485 558 38,000 -60 Level FlightAware
17:09 -24.1868 163.8961 226° Southwest  Level FlightAware Approximate
17:10 -24.2676 163.8056 226° Southwest  Level FlightAware Approximate
17:11 -24.3484 163.7149 226° Southwest  Level FlightAware Approximate
17:11 -23.5919 164.5257 224° Southwest 40,000  Level Aus ATC (Calculated)
17:11 -23.6291 164.4854 224° Southwest 40,000 -60 Level Aus ATC (Calculated)
17:13 -23.7417 164.3633 225° Southwest  Level FlightAware Approximate
17:14 -23.8167 164.2819 225° Southwest  Level FlightAware Approximate
17:14 -23.9605 164.1248 224° Southwest 40,000  Level Aus ATC (Calculated)
17:16 -24.0728 164.0022 225° Southwest  Level FlightAware Approximate
17:17 -24.1477 163.9203 225° Southwest  Level FlightAware Approximate
17:17 -24.2337 163.8255 224° Southwest 40,000  Level Aus ATC (Calculated)
17:17 -24.2977 163.7551 224° Southwest 40,000 -60 Level Aus ATC (Calculated)
17:19 -24.4110 163.6305 225° Southwest  Level FlightAware Approximate
17:20 -24.4857 163.5482 225° Southwest  Level FlightAware Approximate
17:20 -24.6120 163.4079 224° Southwest 40,000  Level Aus ATC (Calculated)
17:21 -24.5603 163.4659 225° Southwest  Level FlightAware Approximate
17:22 -24.7063 163.3005 225° Southwest  Level Estimated
17:23 -24.7807 163.2177 225° Southwest  Level FlightAware Approximate
17:24 -24.8551 163.1349 225° Southwest  Level FlightAware Approximate
17:25 -24.9294 163.0519 225° Southwest  Level FlightAware Approximate
17:26 -25.0037 162.9689 225° Southwest  Level FlightAware Approximate
17:27 -25.0780 162.8857 225° Southwest  Level FlightAware Approximate
17:28 -25.1522 162.8025 225° Southwest  Level FlightAware Approximate
17:29 -25.2263 162.7191 225° Southwest  Level FlightAware Approximate
17:30 -25.3004 162.6356 226° Southwest  Level FlightAware Approximate
17:31 -25.3745 162.5521 226° Southwest  Level FlightAware Approximate
17:32 -25.4485 162.4684 226° Southwest  Level FlightAware Approximate
17:33 -25.5224 162.3846 226° Southwest  Level FlightAware Approximate
17:34 -25.5964 162.3008 226° Southwest  Level FlightAware Approximate
17:35 -25.6702 162.2168 226° Southwest  Level FlightAware Approximate
17:36 -25.7440 162.1327 226° Southwest  Level FlightAware Approximate
17:37 -25.8178 162.0486 226° Southwest  Level FlightAware Approximate
17:37 -26.3351 161.4552 224° Southwest 40,000  Level Aus ATC (Calculated)
17:39 -26.4597 161.3105 226° Southwest  Level FlightAware Approximate
17:39 -26.5166 161.2444 224° Southwest 40,000  Level Aus ATC (Calculated)
17:41 -26.6398 161.1007 226° Southwest  Level FlightAware Approximate
17:41 -26.7355 160.9888 224° Southwest 40,000  Level Aus ATC (Calculated)
17:43 -26.8597 160.8431 226° Southwest  Level FlightAware Approximate
17:44 -26.9326 160.7573 226° Southwest  Level FlightAware Approximate
17:45 -27.0056 160.6713 226° Southwest  Level FlightAware Approximate
17:46 -27.0784 160.5852 226° Southwest  Level FlightAware Approximate
17:46 -27.2602 160.3698 224° Southwest 40,000  Level Aus ATC (Calculated)
17:48 -27.3826 160.2242 227° Southwest  Level FlightAware Approximate
17:49 -27.4552 160.1375 227° Southwest  Level FlightAware Approximate
17:50 -27.5277 160.0508 227° Southwest  Level FlightAware Approximate
17:51 -27.6002 159.9639 227° Southwest  Level FlightAware Approximate
17:51 -27.7585 159.7735 223° Southwest 40,000  Level Aus ATC (Calculated)
17:51 -27.8207 159.6986 223° Southwest 40,000 -180 Level Aus ATC (Calculated)
17:53 -27.9013 159.6011 227° Southwest  Level FlightAware Approximate
17:54 -27.9745 159.5124 227° Southwest  Level FlightAware Approximate
17:55 -28.0477 159.4235 227° Southwest  Level FlightAware Approximate
17:56 -28.1209 159.3345 227° Southwest  Level FlightAware Approximate
17:56 -28.3359 159.0718 221° Southwest 40,000  Level Aus ATC (Calculated)
17:57 -28.1940 159.2454 227° Southwest  Level FlightAware Approximate
17:58 -28.2483 159.1790 47° Northeast  Level FlightAware Approximate
17:59 -28.3213 159.0896 227° Southwest  Level FlightAware Approximate
18:00 -28.2483 159.1790 47° Northeast  Level FlightAware Approximate
18:01 -28.3213 159.0896 227° Southwest  Level FlightAware Approximate
18:01 -28.7430 158.5693 216° Southwest 40,000  Level Aus ATC (Calculated)
18:02 -28.2483 159.1790 47° Northeast  Level FlightAware Approximate
18:03 -28.6447 158.6912 47° Northeast  Level FlightAware Approximate
18:04 -28.5727 158.7802 47° Northeast  Level FlightAware Approximate
18:05 -28.5006 158.8692 47° Northeast  Level FlightAware Approximate
18:06 -28.4285 158.9579 47° Northeast  Level FlightAware Approximate
18:06 -29.1482 158.0629 176° South 40,000  Level Aus ATC (Calculated)
18:08 -29.2494 157.9295 227° Southwest  Level Estimated
18:08 -29.2694 157.9103 115° Southeast 40,000  Level Aus ATC (Calculated)
18:09 -29.3904 157.7572 80° East 40,000 -540 Level Aus ATC (Calculated)
18:11 -29.4989 157.6195 228° Southwest  Level FlightAware Approximate
18:12 -29.5737 157.5243 228° Southwest  Level FlightAware Approximate
18:13 -29.6483 157.4290 228° Southwest  Level FlightAware Approximate
18:13 -29.6720 157.3987 61° Northeast 40,000  Level Aus ATC (Calculated)
18:14 -29.3392 158.0785 228° Southwest 290 334 37,100 -1,860 Descending Aus ATC (RADAR)
18:14 -29.3749 158.0396 223° Southwest 298 343 37,100  Level Aus ATC (RADAR)
18:15 -29.4163 157.9949 223° Southwest 302 348 37,100  Level Aus ATC (RADAR)
18:15 -29.4525 157.9561 223° Southwest 303 349 37,100  Level Aus ATC (RADAR)
18:17 -29.5322 157.8707 223° Southwest 318 366 37,100  Level Aus ATC (RADAR)
18:17 -29.5530 157.8483 223° Southwest 312 359 37,100  Level Aus ATC (RADAR)
18:18 -29.5832 157.8152 224° Southwest 310 357 37,100  Level Aus ATC (RADAR)
18:18 -29.6374 157.7572 223° Southwest 309 356 37,100  Level Aus ATC (RADAR)
18:19 -29.6728 157.7181 224° Southwest 304 350 37,100  Level Aus ATC (RADAR)
18:20 -29.7113 157.6774 223° Southwest 311 358 37,100  Level Aus ATC (RADAR)
18:20 -29.7470 157.6387 223° Southwest 310 357 37,100  Level Aus ATC (RADAR)
18:21 -29.7884 157.5969 221° Southwest 390 449 37,100  Level Aus ATC (RADAR)
18:22 -29.8470 157.5304 225° Southwest 319 367 37,100  Level Aus ATC (RADAR)
18:22 -29.8712 157.5030 224° Southwest 309 356 37,100  Level Aus ATC (RADAR)
18:23 -29.8954 157.4764 224° Southwest 304 350 37,100  Level Aus ATC (RADAR)
18:23 -29.9432 157.4215 225° Southwest 369 425 37,100  Level Aus ATC (RADAR)
18:24 -29.9790 157.3829 223° Southwest 315 362 37,100  Level Aus ATC (RADAR)
18:24 -30.0167 157.3421 223° Southwest 317 365 37,100  Level Aus ATC (RADAR)
18:25 -30.0488 157.3053 225° Southwest 298 343 37,100  Level Aus ATC (RADAR)
18:26 -30.0858 157.2652 223° Southwest 304 350 37,100 60 Level Aus ATC (RADAR)
18:27 -30.1599 157.1842 223° Southwest 310 357 37,300 240 Climbing Aus ATC (RADAR)
18:27 -30.1800 157.1618 224° Southwest 306 352 37,500 540 Climbing Aus ATC (RADAR)
18:28 -30.2156 157.1223 224° Southwest 304 350 37,800 420 Climbing Aus ATC (RADAR)
18:28 -30.2610 157.0718 224° Southwest 303 349 38,100 600 Climbing Aus ATC (RADAR)
18:29 -30.2967 157.0324 224° Southwest 303 349 38,600 720 Climbing Aus ATC (RADAR)
18:30 -30.3263 156.9990 224° Southwest 301 346 38,900 600 Climbing Aus ATC (RADAR)
18:30 -30.3710 156.9493 224° Southwest 297 342 39,400 480 Climbing Aus ATC (RADAR)
18:31 -30.4052 156.9109 224° Southwest 297 342 39,600 480 Climbing Aus ATC (RADAR)
18:32 -30.4597 156.8503 224° Southwest 295 339 40,200 360 Climbing Aus ATC (RADAR)
18:32 -30.4846 156.8226 224° Southwest 296 341 40,100 -120 Descending Aus ATC (RADAR)
18:33 -30.5149 156.7885 224° Southwest 300 345 40,100  Level Aus ATC (RADAR)
18:33 -30.5620 156.7358 224° Southwest 310 357 40,100  Level Aus ATC (RADAR)
18:34 -30.5977 156.6962 224° Southwest 308 354 40,100  Level Aus ATC (RADAR)
18:35 -30.6334 156.6558 224° Southwest 307 353 40,100  Level Aus ATC (RADAR)
18:35 -30.6697 156.6155 224° Southwest 309 356 40,100  Level Aus ATC (RADAR)
18:36 -30.7008 156.5804 224° Southwest 311 358 40,100  Level Aus ATC (RADAR)
18:37 -30.7735 156.4986 224° Southwest 313 360 40,100  Level Aus ATC (RADAR)
18:37 -30.7998 156.4689 224° Southwest 314 361 40,100  Level Aus ATC (RADAR)
18:38 -30.8365 156.4273 224° Southwest 316 364 40,100  Level Aus ATC (RADAR)
18:39 -30.8844 156.3735 224° Southwest 318 366 40,100  Level Aus ATC (RADAR)
18:39 -30.9163 156.3375 224° Southwest 320 368 40,100  Level Aus ATC (RADAR)
18:40 -30.9538 156.2951 224° Southwest 322 371 40,100  Level Aus ATC (RADAR)
18:40 -30.9914 156.2522 224° Southwest 323 372 40,100  Level Aus ATC (RADAR)
18:41 -31.0293 156.2094 224° Southwest 325 374 40,100  Level Aus ATC (RADAR)
18:42 -31.1104 156.1171 224° Southwest 326 375 40,100  Level Aus ATC (RADAR)
18:43 -31.1374 156.0868 224° Southwest 325 374 40,100  Level Aus ATC (RADAR)
18:43 -31.1747 156.0441 224° Southwest 323 372 40,100  Level Aus ATC (RADAR)
18:44 -31.2175 155.9946 225° Southwest 324 373 40,100  Level Aus ATC (RADAR)
18:44 -31.2549 155.9521 224° Southwest 323 372 40,100  Level Aus ATC (RADAR)
18:45 -31.2919 155.9099 224° Southwest 320 368 40,100  Level Aus ATC (RADAR)
18:46 -31.3343 155.8617 224° Southwest 320 368 40,100  Level Aus ATC (RADAR)
18:46 -31.3710 155.8193 225° Southwest 319 367 40,100  Level Aus ATC (RADAR)
18:47 -31.4338 155.7470 224° Southwest 317 365 40,100  Level Aus ATC (RADAR)
18:48 -31.4601 155.7170 224° Southwest 317 365 40,100  Level Aus ATC (RADAR)
18:48 -31.4966 155.6749 225° Southwest 317 365 40,100  Level Aus ATC (RADAR)
18:49 -31.5431 155.6214 224° Southwest 313 360 40,100  Level Aus ATC (RADAR)
18:50 -31.5793 155.5799 224° Southwest 314 361 40,100  Level Aus ATC (RADAR)
18:50 -31.6150 155.5385 225° Southwest 311 358 40,100 -120 Level Aus ATC (RADAR)
18:51 -31.6420 155.5070 225° Southwest 310 357 40,000  Descending FlightAware
18:51 -31.6508 155.4969 225° Southwest 312 359 40,100 120 Climbing Aus ATC (RADAR)
18:51 -31.6863 155.4558 225° Southwest 308 354 40,100 -180 Level Aus ATC (RADAR)
18:51 -31.6870 155.4550 225° Southwest 309 356 40,000 -180 Descending FlightAware
18:52 -31.7240 155.4120 225° Southwest 308 354 40,000  Level FlightAware
18:53 -31.7560 155.3760 224° Southwest 308 354 40,000  Level FlightAware
18:53 -31.7870 155.3410 224° Southwest 308 354 40,000  Level FlightAware
18:54 -31.8190 155.3040 224° Southwest 308 354 40,000  Level FlightAware
18:54 -31.8500 155.2690 224° Southwest 308 354 40,000  Level FlightAware
18:55 -31.8820 155.2330 224° Southwest 308 354 40,000  Level FlightAware
18:56 -31.9500 155.1480 227° Southwest 313 360 40,000  Level FlightAware
18:56 -31.9880 155.1040 224° Southwest 314 361 40,000  Level FlightAware
18:57 -32.0240 155.0620 225° Southwest 306 352 40,000 60 Level FlightAware
18:57 -32.0580 155.0226 225° Southwest 302 348 40,100  Climbing Aus ATC (RADAR)
18:57 -32.0590 155.0210 225° Southwest 301 346 40,000 -180 Descending FlightAware
18:58 -32.0940 154.9800 225° Southwest 301 346 40,000  Level FlightAware
18:59 -32.1340 154.9330 225° Southwest 312 359 40,000  Level FlightAware
18:59 -32.1820 154.8760 225° Southwest 316 364 40,000  Level FlightAware
19:00 -32.2180 154.8340 225° Southwest 314 361 40,000  Level FlightAware
19:01 -32.2570 154.7890 224° Southwest 307 353 40,000  Level FlightAware
19:01 -32.2950 154.7440 225° Southwest 301 346 40,000  Level FlightAware
19:02 -32.3230 154.7100 226° Southwest 301 346 40,000  Level FlightAware
19:02 -32.3590 154.6670 225° Southwest 299 344 40,000  Level FlightAware
19:03 -32.3910 154.6300 224° Southwest 299 344 40,000  Level FlightAware
19:04 -32.4320 154.5810 225° Southwest 315 362 40,000  Level FlightAware
19:04 -32.4700 154.5360 225° Southwest 318 366 40,000  Level FlightAware
19:05 -32.5060 154.4920 226° Southwest 319 367 40,000  Level FlightAware
19:05 -32.5490 154.4420 224° Southwest 321 369 40,000  Level FlightAware
19:06 -32.5850 154.3990 225° Southwest 318 366 40,000  Level FlightAware
19:07 -32.6220 154.3550 225° Southwest 318 366 40,000  Level FlightAware
19:07 -32.6570 154.3130 225° Southwest 316 364 40,000  Level FlightAware
19:08 -32.6930 154.2700 225° Southwest 314 361 40,000  Level FlightAware
19:08 -32.7290 154.2260 225° Southwest 318 366 40,000 120 Level FlightAware
19:08 -32.7332 154.2217 225° Southwest 317 365 40,100 120 Climbing Aus ATC (RADAR)
19:09 -32.7693 154.1787 225° Southwest 315 362 40,100 -180 Level Aus ATC (RADAR)
19:09 -32.7650 154.1840 225° Southwest 316 364 40,000 -240 Descending FlightAware
19:09 -32.7990 154.1430 225° Southwest 312 359 40,000  Level FlightAware
19:10 -32.8400 154.0930 226° Southwest 314 361 40,000  Level FlightAware
19:11 -32.8790 154.0470 225° Southwest 312 359 40,000  Level FlightAware
19:11 -32.8960 154.0260 226° Southwest 311 358 40,000  Level FlightAware
19:12 -32.9450 153.9670 225° Southwest 309 356 40,000  Level FlightAware
19:12 -32.9810 153.9230 226° Southwest 309 356 40,000  Level FlightAware
19:13 -33.0170 153.8800 225° Southwest 312 359 40,000  Level FlightAware
19:14 -33.0520 153.8380 225° Southwest 311 358 40,000  Level FlightAware
19:14 -33.0870 153.7950 226° Southwest 309 356 40,000  Level FlightAware
19:15 -33.1240 153.7500 226° Southwest 310 357 40,000  Level FlightAware
19:16 -33.1660 153.6990 225° Southwest 311 358 40,000  Level FlightAware
19:16 -33.1975 153.6609 225° Southwest 305 351 40,000  Level Aus ATC (RADAR)
19:16 -33.2030 153.6530 225° Southwest 316 364 40,000  Level FlightAware
19:17 -33.2430 153.6040 226° Southwest 318 366 40,000  Level FlightAware
19:17 -33.2790 153.5610 225° Southwest 315 362 40,000  Level FlightAware
19:18 -33.3110 153.5220 225° Southwest 314 361 40,000  Level FlightAware
19:18 -33.3200 153.5116 225° Southwest 306 352 40,000  Level Aus ATC (RADAR)
19:18 -33.3452 153.4807 225° Southwest 306 352 40,000  Level Aus ATC (RADAR)
19:18 -33.3460 153.4800 225° Southwest 311 358 40,000  Level FlightAware
19:19 -33.3802 153.4379 225° Southwest 303 349 40,000  Level Aus ATC (RADAR)
19:19 -33.3820 153.4350 225° Southwest 310 357 40,000  Level FlightAware
19:20 -33.4190 153.3890 226° Southwest 310 357 40,000  Level FlightAware
19:20 -33.4560 153.3440 226° Southwest 311 358 40,000  Level FlightAware
19:20 -33.4599 153.3396 226° Southwest 302 348 40,000  Level Aus ATC (RADAR)
19:21 -33.4970 153.2930 226° Southwest 314 361 40,000  Level FlightAware
19:22 -33.5360 153.2460 225° Southwest 316 364 40,000  Level FlightAware
19:22 -33.5590 153.2170 226° Southwest 319 367 40,000  Level FlightAware
19:23 -33.5940 153.1740 226° Southwest 318 366 40,000 -300 Level FlightAware
19:23 -33.6320 153.1270 226° Southwest 309 356 39,700 -780 Descending FlightAware
19:24 -33.6690 153.0810 226° Southwest 300 345 39,100 -960 Descending FlightAware
19:24 -33.6980 153.0450 226° Southwest 290 334 38,600 -1,080 Descending FlightAware
19:25 -33.7318 153.0022 226° Southwest 287 330 38,000 -1,080 Descending Aus ATC (RADAR)
19:25 -33.7310 153.0050 226° Southwest 293 337 38,000 -1,080 Level FlightAware
19:25 -33.7650 152.9617 226° Southwest 287 330 37,400 -1,020 Descending Aus ATC (RADAR)
19:26 -33.7660 152.9610 226° Southwest 292 336 37,400 -1,020 Level FlightAware
19:26 -33.7980 152.9210 226° Southwest 292 336 36,800 -1,740 Descending FlightAware
19:27 -33.8310 152.8800 226° Southwest 290 334 35,400 -2,520 Descending FlightAware
19:27 -33.8355 152.8743 226° Southwest 290 334 35,200 -2,760 Descending Aus ATC (RADAR)
19:27 -33.8620 152.8400 227° Southwest 292 336 33,800 -3,240 Descending FlightAware
19:28 -33.8960 152.7980 226° Southwest 330 380 31,700 -3,000 Descending FlightAware
19:28 -33.9380 152.7460 226° Southwest 354 407 30,200 -2,700 Descending FlightAware
19:28 -33.9431 152.7403 226° Southwest 342 394 30,000 -2,160 Descending Aus ATC (RADAR)
19:29 -33.9770 152.6980 226° Southwest 352 405 29,000 -2,100 Descending FlightAware
19:30 -34.0180 152.6460 226° Southwest 344 396 27,600 -2,280 Descending FlightAware
19:30 -34.0540 152.6010 226° Southwest 338 389 26,400 -2,160 Descending FlightAware
19:30 -34.0670 152.5800 233° Southwest 337 388 25,900 -2,160 Descending FlightAware
19:31 -34.0760 152.5490 251° West 339 390 25,300 -2,040 Descending FlightAware
19:31 -34.0730 152.4710 273° West 356 410 24,000 -2,040 Descending FlightAware
19:32 -34.0670 152.4020 276° West 355 409 22,700 -2,160 Descending FlightAware
19:32 -34.0610 152.3390 277° West 347 399 21,600 -2,100 Descending FlightAware
19:33 -34.0550 152.2750 276° West 340 391 20,400 -2,040 Descending FlightAware
19:34 -34.0480 152.2050 277° West 331 381 19,200 -1,920 Descending FlightAware
19:34 -34.0420 152.1400 276° West 322 371 18,100 -1,920 Descending FlightAware
19:35 -34.0360 152.0830 277° West 315 362 17,000 -1,920 Descending FlightAware
19:35 -34.0300 152.0190 276° West 320 368 15,900 -1,920 Descending FlightAware
19:36 -34.0240 151.9590 277° West 313 360 14,800 -1,920 Descending FlightAware
19:37 -34.0180 151.8990 277° West 307 353 13,700 -1,860 Descending FlightAware
19:37 -34.0120 151.8450 278° West 301 346 12,700 -1,860 Descending FlightAware
19:38 -34.0060 151.7860 277° West 293 337 11,600 -1,860 Descending FlightAware
19:38 -34.0000 151.7280 277° West 288 331 10,500 -1,980 Descending FlightAware
19:38 -33.9997 151.7205 277° West 285 328 10,400 -540 Descending Aus ATC (RADAR)
19:39 -33.9940 151.6710 277° West 284 327 10,200 -660 Descending FlightAware
19:39 -33.9910 151.6330 275° West 282 325 9,800 -1,200 Descending FlightAware
19:40 -33.9880 151.6070 278° West 276 318 9,400 -1,380 Descending FlightAware
19:40 -33.9850 151.5790 277° West 269 310 9,000 -1,260 Descending FlightAware
19:40 -33.9810 151.5440 278° West 266 306 8,500 -1,200 Descending FlightAware
19:41 -33.9780 151.5090 276° West 266 306 8,100 -900 Descending FlightAware
19:41 -33.9750 151.4830 278° West 265 305 7,900 -840 Descending FlightAware
19:41 -33.9720 151.4560 278° West 267 307 7,600 -840 Descending FlightAware
19:42 -33.9690 151.4210 276° West 268 308 7,300 -960 Descending FlightAware
19:42 -33.9780 151.3790 256° West 260 299 6,800 -1,020 Descending FlightAware
19:42 -33.9940 151.3670 212° Southwest 269 310 6,600 -960 Descending FlightAware
19:43 -34.0060 151.3620 199° South 269 310 6,400 -900 Descending FlightAware
19:43 -34.0170 151.3570 201° Southwest 260 299 6,300 -840 Descending FlightAware
19:43 -34.0400 151.3490 196° South 263 303 6,000 -1,020 Descending FlightAware
19:43 -34.0460 151.3480 188° South 262 302 5,900 -960 Descending FlightAware
19:44 -34.0710 151.3530 171° South 262 302 5,600 -840 Descending FlightAware
19:44 -34.0810 151.3560 166° South 252 290 5,500 -840 Descending FlightAware
19:44 -34.1060 151.3630 167° South 252 290 5,200 -900 Descending FlightAware
19:44 -34.1220 151.3660 171° South 246 283 5,000 -900 Descending FlightAware
19:45 -34.1430 151.3600 193° South 223 257 4,700 -1,020 Descending FlightAware
19:45 -34.1500 151.3500 230° Southwest 218 251 4,500 -900 Descending FlightAware
19:45 -34.1540 151.3410 242° Southwest 220 253 4,400 -600 Descending FlightAware
19:45 -34.1560 151.3280 259° West 220 253 4,300 -600 Descending FlightAware
19:45 -34.1570 151.3070 267° West 207 238 4,100 -720 Descending FlightAware
19:46 -34.1550 151.3000 289° West 203 234 4,000 -900 Descending FlightAware
19:46 -34.1450 151.2860 311° West 188 216 3,800 -780 Descending FlightAware
19:46 -34.1350 151.2770 323° Northwest 187 215 3,600 -840 Descending FlightAware
19:46 -34.1200 151.2640 324° Northwest 180 207 3,300 -960 Descending FlightAware
19:47 -34.1000 151.2460 323° Northwest 177 204 2,800 -1,080 Descending FlightAware
19:47 -34.0880 151.2350 323° Northwest 180 207 2,400 -1,080 Descending FlightAware
19:48 -34.0740 151.2230 325° Northwest 174 200 2,100 -840 Descending FlightAware
19:48 -34.0680 151.2200 338° Northwest 164 189 2,000 -600 Descending FlightAware
19:48 -34.0550 151.2160 346° North 159 183 1,800 -960 Descending FlightAware
19:48 -34.0350 151.2100 346° North 150 173 1,300 -960 Descending FlightAware
19:49 -34.0210 151.2070 350° North 146 168 1,100 -780 Descending FlightAware
19:49 -34.0090 151.2040 348° North 142 163 800 -780 Descending FlightAware
19:49 -33.9960 151.2000 346° North 143 165 600 -660 Descending FlightAware
19:50 -33.9790 151.1960 349° North 136 157 300 -720 Descending FlightAware
19:50 -33.9620 151.1920 349° North 130 150 -720 Descending FlightAware